Time;durP1;ratioP1;P1;durP2;ratioP2;P2;SDS_P1;SDS_P2;PMS_P1;PMS_P2;Temp;Humidity;BMP_temperature;BMP_pressure;BME280_temperature;BME280_humidity;BME280_pressure;Samples;Min_cycle;Max_cycle;Signal;HPM_P1;HPM_P2
2022/07/12 00:01:39;;;;;;;3.90;2.00;;;21.50;56.30;;;;;;4861490;29;20029;-73
2022/07/12 00:04:05;;;;;;;4.78;1.98;;;21.50;56.40;;;;;;4862837;29;20040;-73
2022/07/12 00:06:31;;;;;;;5.35;2.10;;;21.60;56.40;;;;;;4862767;29;20117;-73
2022/07/12 00:08:57;;;;;;;4.13;1.80;;;21.50;56.40;;;;;;4862738;29;20178;-74
2022/07/12 00:11:23;;;;;;;3.28;1.92;;;21.50;56.50;;;;;;4862507;29;20494;-74
2022/07/12 00:13:49;;;;;;;3.42;1.73;;;21.50;56.40;;;;;;4861748;29;20038;-73
2022/07/12 00:16:15;;;;;;;5.63;1.92;;;21.50;56.50;;;;;;4862583;29;20380;-73
2022/07/12 00:18:41;;;;;;;3.63;1.70;;;21.50;56.50;;;;;;4862556;29;20037;-73
2022/07/12 00:21:07;;;;;;;3.55;1.73;;;21.50;56.50;;;;;;4845828;29;20113;-73
2022/07/12 00:23:34;;;;;;;4.53;1.75;;;21.50;56.60;;;;;;4862538;29;20039;-73
2022/07/12 00:26:04;;;;;;;5.05;2.08;;;21.50;56.60;;;;;;4862458;29;20624;-73
2022/07/12 00:28:33;;;;;;;4.80;1.95;;;21.50;56.60;;;;;;4861285;29;20029;-73
2022/07/12 00:30:59;;;;;;;6.07;2.23;;;21.50;56.60;;;;;;4862019;29;20030;-74
2022/07/12 00:33:25;;;;;;;3.50;1.55;;;21.50;56.70;;;;;;4862501;29;20033;-73
2022/07/12 00:35:51;;;;;;;3.63;1.77;;;21.50;56.70;;;;;;4862405;29;20037;-73
2022/07/12 00:38:17;;;;;;;4.55;1.80;;;21.50;56.70;;;;;;4861326;29;20495;-73
2022/07/12 00:40:43;;;;;;;2.55;1.60;;;21.50;56.70;;;;;;4860697;29;20060;-73
2022/07/12 00:43:09;;;;;;;4.10;2.20;;;21.50;56.70;;;;;;4862193;29;20030;-73
2022/07/12 00:45:35;;;;;;;4.93;1.65;;;21.50;56.80;;;;;;4862125;29;20431;-73
2022/07/12 00:48:01;;;;;;;3.13;1.77;;;21.50;56.80;;;;;;4861094;29;20026;-74
2022/07/12 00:50:27;;;;;;;4.50;1.75;;;21.50;56.80;;;;;;4860664;29;20077;-73
2022/07/12 00:52:54;;;;;;;4.57;1.88;;;21.50;56.80;;;;;;4862130;29;20041;-73
2022/07/12 00:55:22;;;;;;;5.05;1.80;;;21.50;56.90;;;;;;4862014;29;20065;-73
2022/07/12 00:57:49;;;;;;;5.40;2.08;;;21.50;56.90;;;;;;4861981;29;20037;-73
2022/07/12 01:00:24;;;;;;;3.90;1.80;;;21.50;56.80;;;;;;4861904;29;20578;-73
2022/07/12 01:02:52;;;;;;;4.35;1.80;;;21.50;56.90;;;;;;4861913;29;20082;-73
2022/07/12 01:05:18;;;;;;;4.22;1.80;;;21.50;56.90;;;;;;4861832;29;20112;-73
2022/07/12 01:07:44;;;;;;;5.28;2.20;;;21.50;56.90;;;;;;4875273;29;20104;-73
2022/07/12 01:10:10;;;;;;;5.45;2.05;;;21.50;57.00;;;;;;4861365;29;20112;-73
2022/07/12 01:12:37;;;;;;;3.83;1.77;;;21.50;57.00;;;;;;4861688;29;20113;-73
2022/07/12 01:15:05;;;;;;;3.22;1.80;;;21.50;57.00;;;;;;4861757;29;20059;-73
2022/07/12 01:17:31;;;;;;;4.57;2.10;;;21.60;57.00;;;;;;4861562;29;20072;-74
2022/07/12 01:19:58;;;;;;;3.88;1.67;;;21.60;57.00;;;;;;4859922;29;20068;-73
2022/07/12 01:22:32;;;;;;;2.78;1.67;;;21.60;57.00;;;;;;4860394;29;20089;-73
2022/07/12 01:24:59;;;;;;;4.82;1.90;;;21.60;57.00;;;;;;4844964;29;20376;-73
2022/07/12 01:27:25;;;;;;;4.60;1.77;;;21.50;57.00;;;;;;4861524;29;20105;-73
2022/07/12 01:29:51;;;;;;;5.80;1.95;;;21.60;57.00;;;;;;4859945;29;20450;-74
2022/07/12 01:32:26;;;;;;;4.20;1.67;;;21.60;57.00;;;;;;4861352;29;20026;-73
2022/07/12 01:34:54;;;;;;;4.03;2.00;;;21.50;57.00;;;;;;4860244;29;20046;-73
2022/07/12 01:37:22;;;;;;;3.50;1.83;;;21.60;57.10;;;;;;4861348;29;20065;-73
2022/07/12 01:39:51;;;;;;;3.03;1.67;;;21.50;57.00;;;;;;4859716;29;20439;-73
2022/07/12 01:42:17;;;;;;;;;;;21.50;57.10;;;;;;4860491;29;20049;-73
2022/07/12 01:44:43;;;;;;;5.32;1.90;;;21.50;57.00;;;;;;4861054;29;19967;-73
2022/07/12 01:47:10;;;;;;;4.63;1.33;;;21.50;57.10;;;;;;4875419;29;20034;-73
2022/07/12 01:49:36;;;;;;;3.85;1.77;;;21.60;57.10;;;;;;4860834;29;20022;-73
2022/07/12 01:52:01;;;;;;;4.72;2.00;;;21.60;57.20;;;;;;4860817;29;20030;-73
2022/07/12 01:54:28;;;;;;;4.43;2.15;;;21.60;57.20;;;;;;4861008;29;20026;-73
2022/07/12 01:56:54;;;;;;;3.70;1.67;;;21.60;57.20;;;;;;4890838;29;20037;-73
2022/07/12 01:59:21;;;;;;;3.55;1.80;;;21.60;57.20;;;;;;4860936;29;20056;-73
2022/07/12 02:01:47;;;;;;;3.92;1.70;;;21.50;57.20;;;;;;4861052;29;20021;-73
2022/07/12 02:04:16;;;;;;;3.22;1.90;;;21.50;57.20;;;;;;4860696;29;20033;-73
2022/07/12 02:06:44;;;;;;;4.80;1.87;;;21.50;57.20;;;;;;4860749;29;20037;-74
2022/07/12 02:09:11;;;;;;;4.28;1.77;;;21.50;57.20;;;;;;4860723;29;20022;-74
2022/07/12 02:11:37;;;;;;;3.60;1.70;;;21.50;57.30;;;;;;4859298;29;20069;-74
2022/07/12 02:14:03;;;;;;;4.03;1.70;;;21.50;57.30;;;;;;4860654;29;20448;-74
2022/07/12 02:16:29;;;;;;;3.08;1.80;;;21.50;57.30;;;;;;4860657;29;20033;-74
2022/07/12 02:18:54;;;;;;;4.05;1.70;;;21.50;57.30;;;;;;4860662;29;20029;-73
2022/07/12 02:21:20;;;;;;;4.43;1.65;;;21.50;57.30;;;;;;4859005;29;20170;-74
2022/07/12 02:23:46;;;;;;;4.10;1.77;;;21.50;57.30;;;;;;4844106;29;20048;-74
2022/07/12 02:26:12;;;;;;;3.03;1.52;;;21.50;57.30;;;;;;4860385;29;20029;-73
2022/07/12 02:28:38;;;;;;;3.67;1.92;;;21.50;57.30;;;;;;4860612;29;20558;-73
2022/07/12 02:31:05;;;;;;;3.38;1.65;;;21.50;57.40;;;;;;4859927;29;20109;-73
2022/07/12 02:33:31;;;;;;;2.97;1.60;;;21.50;57.50;;;;;;4860343;29;20030;-73
2022/07/12 02:35:56;;;;;;;3.55;1.92;;;21.50;57.40;;;;;;4858911;29;20082;-73
2022/07/12 02:38:22;;;;;;;3.90;1.90;;;21.50;58.00;;;;;;4860282;29;20108;-74
2022/07/12 02:40:54;;;;;;;2.33;1.52;;;21.50;57.40;;;;;;4858615;29;20037;-74
2022/07/12 02:43:24;;;;;;;2.83;1.70;;;21.50;57.50;;;;;;4860193;29;20029;-74
2022/07/12 02:45:51;;;;;;;4.30;2.03;;;21.50;57.50;;;;;;4860295;29;20458;-74
2022/07/12 02:48:17;;;;;;;2.85;1.77;;;21.50;57.50;;;;;;4860005;29;20372;-74
2022/07/12 02:50:43;;;;;;;3.17;1.70;;;21.50;57.40;;;;;;4859732;29;20029;-74
2022/07/12 02:53:10;;;;;;;5.07;2.25;;;21.50;57.40;;;;;;4859926;29;20086;-74
2022/07/12 02:55:37;;;;;;;4.38;2.10;;;21.50;57.50;;;;;;4859885;29;20040;-74
2022/07/12 02:58:05;;;;;;;4.00;1.80;;;21.50;58.10;;;;;;4859835;29;20577;-74
2022/07/12 03:00:32;;;;;;;2.92;1.90;;;21.50;57.50;;;;;;4859521;29;20053;-74
2022/07/12 03:02:58;;;;;;;3.30;1.50;;;21.50;57.50;;;;;;4859906;29;20041;-73
2022/07/12 03:05:24;;;;;;;3.35;2.00;;;21.50;57.60;;;;;;4859794;29;20040;-74
2022/07/12 03:07:50;;;;;;;4.20;1.95;;;21.50;57.60;;;;;;4858683;29;20419;-74
2022/07/12 03:10:16;;;;;;;3.20;1.58;;;21.50;57.60;;;;;;4859432;29;20542;-74
2022/07/12 03:12:42;;;;;;;3.50;1.60;;;21.50;57.60;;;;;;4859699;29;20026;-73
2022/07/12 03:15:08;;;;;;;3.22;1.83;;;21.50;57.60;;;;;;4859673;29;20128;-73
2022/07/12 03:17:34;;;;;;;4.50;1.80;;;21.50;57.60;;;;;;4843360;29;20044;-73
2022/07/12 03:20:01;;;;;;;3.55;1.80;;;21.50;57.70;;;;;;4858066;29;20040;-73
2022/07/12 03:22:27;;;;;;;3.15;1.75;;;21.50;57.60;;;;;;4843315;29;20048;-74
2022/07/12 03:24:52;;;;;;;2.70;1.67;;;21.50;57.50;;;;;;4859586;29;20038;-74
2022/07/12 03:27:18;;;;;;;2.85;1.55;;;21.50;57.50;;;;;;4859584;29;20026;-74
2022/07/12 03:29:44;;;;;;;3.88;1.70;;;21.50;57.50;;;;;;4859133;29;20029;-74
2022/07/12 03:32:10;;;;;;;3.53;1.73;;;21.60;57.50;;;;;;4879162;29;20034;-74
2022/07/12 03:34:36;;;;;;;3.28;1.90;;;21.50;57.50;;;;;;4865613;29;20033;-74
2022/07/12 03:37:03;;;;;;;2.25;1.58;;;21.50;57.40;;;;;;4865645;29;20140;-74
2022/07/12 03:39:29;;;;;;;3.47;1.70;;;21.50;57.50;;;;;;4864558;29;20037;-74
2022/07/12 03:41:55;;;;;;;3.72;1.50;;;21.50;57.50;;;;;;4865277;29;20041;-74
2022/07/12 03:44:21;;;;;;;3.35;1.70;;;21.50;57.50;;;;;;4865567;29;20036;-73
2022/07/12 03:46:47;;;;;;;3.03;1.70;;;21.60;57.50;;;;;;4865640;29;20398;-74
2022/07/12 03:49:13;;;;;;;3.08;1.67;;;21.50;57.50;;;;;;4864792;29;20029;-74
2022/07/12 03:51:42;;;;;;;2.85;1.67;;;21.50;57.50;;;;;;4865300;29;20108;-74
2022/07/12 03:54:08;;;;;;;3.28;1.80;;;21.60;57.50;;;;;;4865559;29;20112;-74
2022/07/12 03:59:19;;;;;;;3.90;1.92;;;21.50;57.50;;;;;;4865461;29;20113;-73
2022/07/12 04:01:45;;;;;;;4.13;1.88;;;21.50;57.50;;;;;;4865136;29;20074;-74
2022/07/12 04:04:11;;;;;;;3.00;1.88;;;21.50;57.50;;;;;;4864244;29;20085;-74
2022/07/12 04:06:38;;;;;;;2.75;1.65;;;21.60;57.60;;;;;;4865501;29;20069;-73
2022/07/12 04:09:05;;;;;;;3.97;1.90;;;21.50;57.50;;;;;;4865432;29;20036;-74
2022/07/12 04:11:32;;;;;;;3.60;2.00;;;21.50;57.50;;;;;;4864944;29;20070;-74
2022/07/12 04:13:58;;;;;;;3.67;1.85;;;21.50;57.60;;;;;;4865253;29;20058;-74
2022/07/12 04:16:24;;;;;;;3.75;1.73;;;21.50;57.60;;;;;;4865362;29;20030;-73
2022/07/12 04:18:50;;;;;;;3.58;1.90;;;21.50;57.50;;;;;;4848725;29;20056;-73
2022/07/12 04:21:15;;;;;;;3.00;1.83;;;21.50;57.60;;;;;;4863700;29;20143;-73
2022/07/12 04:23:41;;;;;;;4.03;1.75;;;21.50;57.60;;;;;;4864125;29;20033;-73
2022/07/12 04:26:07;;;;;;;4.22;1.80;;;21.50;57.60;;;;;;4863983;29;20044;-73
2022/07/12 04:28:35;;;;;;;2.92;1.58;;;21.50;57.70;;;;;;4865352;29;20021;-73
2022/07/12 04:31:00;;;;;;;3.90;1.75;;;21.50;58.30;;;;;;4864897;29;20037;-73
2022/07/12 04:33:26;;;;;;;4.28;2.20;;;21.50;57.80;;;;;;4863982;29;20170;-72
2022/07/12 04:35:52;;;;;;;2.42;1.50;;;21.50;57.70;;;;;;4848556;29;20037;-72
2022/07/12 04:38:18;;;;;;;3.85;2.00;;;21.50;57.80;;;;;;4865100;29;20061;-72
2022/07/12 04:40:43;;;;;;;2.90;1.65;;;21.50;57.70;;;;;;4864621;29;20094;-73
2022/07/12 04:43:09;;;;;;;4.35;1.80;;;21.50;57.90;;;;;;4876240;29;20108;-73
2022/07/12 04:45:35;;;;;;;2.40;1.60;;;21.50;57.80;;;;;;4862416;29;20487;-72
2022/07/12 04:48:01;;;;;;;3.40;1.80;;;21.60;57.90;;;;;;4862215;29;20063;-73
2022/07/12 04:50:27;;;;;;;3.28;1.65;;;21.50;57.80;;;;;;4861818;29;20101;-73
2022/07/12 04:52:52;;;;;;;4.60;1.70;;;21.50;57.70;;;;;;4862138;29;20546;-73
2022/07/12 04:55:18;;;;;;;2.63;1.55;;;21.50;57.80;;;;;;4862025;29;20041;-73
2022/07/12 04:57:44;;;;;;;3.00;1.73;;;21.50;57.70;;;;;;4861953;29;20037;-73
2022/07/12 05:00:10;;;;;;;2.17;1.42;;;21.50;57.70;;;;;;4860407;29;20033;-73
2022/07/12 05:02:36;;;;;;;2.13;1.60;;;21.50;57.90;;;;;;4861972;29;20065;-73
2022/07/12 05:05:03;;;;;;;3.30;1.60;;;21.50;57.80;;;;;;4861817;29;20065;-72
2022/07/12 05:07:28;;;;;;;3.22;1.55;;;21.50;57.70;;;;;;4861812;29;20094;-72
2022/07/12 05:09:54;;;;;;;4.10;1.77;;;21.50;57.90;;;;;;4861493;29;20475;-73
2022/07/12 05:12:20;;;;;;;2.78;1.70;;;21.50;57.70;;;;;;4861702;29;20040;-73
2022/07/12 05:14:46;;;;;;;2.90;1.70;;;21.50;57.80;;;;;;4861747;29;20034;-73
2022/07/12 05:17:12;;;;;;;3.55;1.63;;;21.50;57.80;;;;;;4861652;29;20033;-72
2022/07/12 05:19:38;;;;;;;3.38;1.70;;;21.50;57.80;;;;;;4861540;29;20117;-73
2022/07/12 05:22:04;;;;;;;3.05;1.80;;;21.50;57.80;;;;;;4860382;29;20082;-73
2022/07/12 05:24:30;;;;;;;3.03;1.88;;;21.50;57.70;;;;;;4861402;29;20081;-73
2022/07/12 05:26:56;;;;;;;2.70;1.70;;;21.50;57.80;;;;;;4861412;29;20112;-73
2022/07/12 05:29:22;;;;;;;2.65;1.67;;;21.50;57.70;;;;;;4861487;29;20146;-72
2022/07/12 05:31:48;;;;;;;3.08;1.52;;;21.50;57.80;;;;;;4860034;29;20034;-73
2022/07/12 05:34:14;;;;;;;2.97;1.63;;;21.50;57.70;;;;;;4845017;29;20030;-73
2022/07/12 05:36:40;;;;;;;2.35;1.40;;;21.60;57.70;;;;;;4844726;29;20380;-72
2022/07/12 05:39:06;;;;;;;2.55;1.60;;;21.50;57.70;;;;;;4844676;29;20041;-72
2022/07/12 05:41:32;;;;;;;2.60;1.30;;;21.60;57.70;;;;;;4859521;29;20045;-73
2022/07/12 05:43:58;;;;;;;2.20;1.50;;;21.50;57.70;;;;;;4861246;29;20029;-72
2022/07/12 05:46:24;;;;;;;4.13;1.88;;;21.50;57.60;;;;;;4861038;29;20160;-73
2022/07/12 05:48:50;;;;;;;2.70;1.70;;;21.60;57.60;;;;;;4861127;29;20033;-73
2022/07/12 05:54:00;;;;;;;2.90;1.60;;;21.60;57.60;;;;;;4860775;29;20033;-73
2022/07/12 05:56:26;;;;;;;2.40;1.30;;;21.60;57.60;;;;;;4859916;29;20376;-72
2022/07/12 05:58:52;;;;;;;2.88;1.63;;;21.60;57.60;;;;;;4859725;29;20105;-73
2022/07/12 06:01:18;;;;;;;2.22;1.40;;;21.60;57.50;;;;;;4860460;29;20094;-72
2022/07/12 06:03:44;;;;;;;2.60;1.67;;;21.60;57.50;;;;;;4859650;29;20033;-73
2022/07/12 06:06:10;;;;;;;3.45;1.80;;;21.60;57.50;;;;;;4859482;29;20029;-73
2022/07/12 06:08:35;;;;;;;2.45;1.40;;;21.60;57.50;;;;;;4859563;29;20037;-73
2022/07/12 06:11:01;;;;;;;3.05;1.80;;;21.60;57.50;;;;;;4860681;29;20384;-72
2022/07/12 06:13:28;;;;;;;3.35;1.60;;;21.60;57.60;;;;;;4859536;29;20033;-73
2022/07/12 06:15:59;;;;;;;2.03;1.35;;;21.50;57.60;;;;;;4859363;29;20517;-73
2022/07/12 06:18:25;;;;;;;4.88;1.88;;;21.60;57.70;;;;;;4860610;29;20399;-73
2022/07/12 06:20:51;;;;;;;2.75;1.60;;;21.60;57.70;;;;;;4860120;29;20033;-73
2022/07/12 06:23:20;;;;;;;1.83;1.35;;;21.50;57.60;;;;;;4859232;29;20126;-73
2022/07/12 06:25:46;;;;;;;1.98;1.23;;;21.50;57.60;;;;;;4860350;29;20037;-73
2022/07/12 06:28:12;;;;;;;2.85;1.70;;;21.50;57.60;;;;;;4874708;29;20029;-72
2022/07/12 06:30:38;;;;;;;2.17;1.35;;;21.60;57.60;;;;;;4859982;29;20034;-73
2022/07/12 06:33:04;;;;;;;2.92;1.60;;;21.50;57.50;;;;;;4859173;29;20390;-73
2022/07/12 06:35:30;;;;;;;4.68;1.88;;;21.50;57.50;;;;;;4859118;29;20094;-73
2022/07/12 06:37:55;;;;;;;2.03;1.30;;;21.60;57.60;;;;;;4874565;29;20080;-73
2022/07/12 06:40:22;;;;;;;2.40;1.58;;;21.60;57.60;;;;;;4859627;29;20069;-73
2022/07/12 06:42:49;;;;;;;3.65;1.35;;;21.60;57.60;;;;;;4860106;29;20026;-73
2022/07/12 06:45:15;;;;;;;2.15;1.50;;;21.60;57.60;;;;;;4860003;29;20040;-73
2022/07/12 06:47:41;;;;;;;2.75;1.58;;;21.50;57.60;;;;;;4858857;29;20026;-73
2022/07/12 06:50:08;;;;;;;2.35;1.30;;;21.50;57.50;;;;;;4859651;29;20661;-73
2022/07/12 06:52:34;;;;;;;2.42;1.60;;;21.60;57.60;;;;;;4860046;29;20121;-74
2022/07/12 06:55:00;;;;;;;2.45;1.50;;;21.50;57.50;;;;;;4858866;29;20084;-73
2022/07/12 06:57:27;;;;;;;2.28;1.20;;;21.60;57.60;;;;;;4859005;29;20124;-73
2022/07/12 06:59:53;;;;;;;2.85;1.50;;;21.60;57.60;;;;;;4859612;29;20033;-73
2022/07/12 07:02:18;;;;;;;2.20;1.38;;;21.60;57.50;;;;;;4859847;29;20061;-73
2022/07/12 07:04:44;;;;;;;2.35;1.25;;;21.60;57.50;;;;;;4859734;29;20104;-73
2022/07/12 07:07:10;;;;;;;2.55;1.33;;;21.60;57.50;;;;;;4859325;29;20025;-73
2022/07/12 07:09:36;;;;;;;2.97;1.50;;;21.60;57.60;;;;;;4859530;29;20026;-73
2022/07/12 07:12:02;;;;;;;3.03;1.65;;;21.60;57.60;;;;;;4859757;29;20034;-73
2022/07/12 07:14:28;;;;;;;2.50;1.38;;;21.60;57.60;;;;;;4858660;29;20165;-73
2022/07/12 07:16:54;;;;;;;2.42;1.30;;;21.60;57.50;;;;;;4874035;29;20453;-73
2022/07/12 07:19:22;;;;;;;2.60;1.40;;;21.60;57.60;;;;;;4858455;29;20065;-73
2022/07/12 07:21:50;;;;;;;2.35;1.33;;;21.60;57.60;;;;;;4859353;29;20033;-73
2022/07/12 07:24:18;;;;;;;2.58;1.55;;;21.60;57.60;;;;;;4858383;29;20040;-72
2022/07/12 07:26:44;;;;;;;1.88;1.30;;;21.60;57.60;;;;;;4858385;29;20033;-73
2022/07/12 07:31:54;;;;;;;2.15;1.40;;;21.60;57.60;;;;;;4859588;29;20026;-73
2022/07/12 07:34:22;;;;;;;2.33;1.42;;;21.60;57.60;;;;;;4858571;29;20048;-73
2022/07/12 07:36:47;;;;;;;2.58;1.50;;;21.60;57.60;;;;;;4859580;29;20138;-73
2022/07/12 07:39:13;;;;;;;2.50;1.60;;;21.60;57.60;;;;;;4858492;29;20500;-73
2022/07/12 07:41:39;;;;;;;2.33;1.40;;;21.60;57.60;;;;;;4873246;29;20070;-72
2022/07/12 07:44:05;;;;;;;2.75;1.30;;;21.60;57.70;;;;;;4858511;29;20029;-73
2022/07/12 07:46:31;;;;;;;2.03;1.40;;;21.60;57.60;;;;;;4859320;29;20025;-73
2022/07/12 07:48:57;;;;;;;4.22;1.70;;;21.60;57.60;;;;;;4858246;29;20036;-73
2022/07/12 07:51:22;;;;;;;2.55;1.52;;;21.60;57.70;;;;;;4859194;29;20055;-73
2022/07/12 07:53:48;;;;;;;2.88;1.42;;;21.60;57.60;;;;;;4858266;29;20097;-73
2022/07/12 07:56:14;;;;;;;2.33;1.40;;;21.60;57.60;;;;;;4858118;29;20401;-73
2022/07/12 07:58:39;;;;;;;2.75;1.50;;;21.70;57.60;;;;;;4858124;29;20525;-73
2022/07/12 08:01:05;;;;;;;2.30;1.50;;;21.70;57.50;;;;;;4857737;29;20066;-74
2022/07/12 08:03:31;;;;;;;3.08;1.60;;;21.70;57.50;;;;;;4859292;29;20547;-73
2022/07/12 08:05:58;;;;;;;2.33;1.50;;;21.70;57.60;;;;;;4859184;29;20061;-74
2022/07/12 08:08:24;;;;;;;3.47;1.45;;;21.70;57.60;;;;;;4859158;29;20495;-73
2022/07/12 08:10:50;;;;;;;4.00;1.90;;;21.70;57.50;;;;;;4859006;29;20033;-73
2022/07/12 08:13:17;;;;;;;2.22;1.42;;;21.70;57.70;;;;;;4859271;29;20086;-73
2022/07/12 08:15:42;;;;;;;2.00;1.40;;;21.70;57.60;;;;;;4859191;29;20253;-73
2022/07/12 08:18:08;;;;;;;1.88;1.38;;;21.70;57.70;;;;;;4861747;29;20588;-73
2022/07/12 08:20:34;;;;;;;1.88;1.15;;;21.70;57.80;;;;;;4862228;29;20487;-73
2022/07/12 08:23:00;;;;;;;1.92;1.40;;;21.70;57.60;;;;;;4862573;29;20042;-73
2022/07/12 08:25:26;;;;;;;2.15;1.45;;;21.70;57.70;;;;;;4862732;29;20162;-73
2022/07/12 08:27:52;;;;;;;2.42;1.33;;;21.70;57.70;;;;;;4861341;29;20064;-73
2022/07/12 08:30:17;;;;;;;2.53;1.40;;;21.70;57.70;;;;;;4861983;29;20061;-72
2022/07/12 08:32:47;;;;;;;2.28;1.40;;;21.70;57.70;;;;;;4862427;29;20185;-73
2022/07/12 08:35:16;;;;;;;2.70;1.30;;;21.70;57.70;;;;;;4892225;29;20206;-73
2022/07/12 08:37:42;;;;;;;1.97;1.23;;;21.70;57.80;;;;;;4861286;29;20105;-73
2022/07/12 08:40:09;;;;;;;2.03;1.20;;;21.70;57.80;;;;;;4861825;29;20034;-73
2022/07/12 08:42:35;;;;;;;1.38;1.17;;;21.70;57.80;;;;;;4861097;29;20475;-73
2022/07/12 08:45:01;;;;;;;2.17;1.40;;;21.70;57.90;;;;;;4860976;29;20033;-73
2022/07/12 08:47:27;;;;;;;3.20;1.30;;;21.70;58.10;;;;;;4860914;29;20034;-73
2022/07/12 08:50:13;;;;;;;3.03;1.60;;;21.70;58.00;;;;;;4891690;29;20098;-73
2022/07/12 08:52:49;;;;;;;3.42;1.52;;;21.70;58.00;;;;;;4862138;29;20543;-73
2022/07/12 08:55:21;;;;;;;2.55;1.52;;;21.70;58.20;;;;;;4862588;29;20053;-73
2022/07/12 08:57:48;;;;;;;1.55;1.25;;;21.70;58.00;;;;;;4862073;29;20065;-73
2022/07/12 09:00:14;;;;;;;2.15;1.40;;;21.70;58.00;;;;;;4875949;29;20554;-73
2022/07/12 09:02:55;;;;;;;1.98;1.40;;;21.70;57.90;;;;;;4860744;29;20037;-73
2022/07/12 09:05:25;;;;;;;2.38;1.30;;;21.70;58.00;;;;;;4861789;29;20041;-73
2022/07/12 09:07:51;;;;;;;2.00;1.40;;;21.70;58.00;;;;;;4861841;29;20093;-73
2022/07/12 09:10:18;;;;;;;1.88;1.45;;;21.70;58.00;;;;;;4861545;29;20065;-73
2022/07/12 09:12:44;;;;;;;1.67;1.20;;;21.70;57.90;;;;;;4862082;29;20166;-73
2022/07/12 09:15:19;;;;;;;2.72;1.40;;;21.70;58.00;;;;;;4861765;29;20045;-73
2022/07/12 09:18:12;;;;;;;2.78;1.55;;;21.70;57.90;;;;;;4861654;29;20089;-73
2022/07/12 09:20:39;;;;;;;2.22;1.15;;;21.70;57.90;;;;;;4861244;29;20036;-73
2022/07/12 09:23:11;;;;;;;2.15;1.52;;;21.70;58.00;;;;;;4861634;29;20038;-72
2022/07/12 09:25:44;;;;;;;2.42;1.40;;;21.70;58.10;;;;;;4861358;29;20502;-73
2022/07/12 09:28:10;;;;;;;2.63;1.55;;;21.70;58.00;;;;;;4861053;29;20101;-72
2022/07/12 09:30:46;;;;;;;2.45;1.48;;;21.70;58.00;;;;;;4860771;29;20029;-73
2022/07/12 09:36:12;;;;;;;2.58;1.33;;;21.70;58.00;;;;;;4861491;29;20227;-72
2022/07/12 09:38:39;;;;;;;2.50;1.35;;;21.70;58.00;;;;;;4861337;29;20030;-72
2022/07/12 09:41:08;;;;;;;1.70;1.20;;;21.70;58.00;;;;;;4860778;29;20043;-72
2022/07/12 09:43:34;;;;;;;2.47;1.40;;;21.70;58.00;;;;;;4861292;29;20483;-72
2022/07/12 09:46:01;;;;;;;2.65;1.50;;;21.70;59.00;;;;;;4861094;29;20448;-72
2022/07/12 09:48:30;;;;;;;1.45;1.13;;;21.70;58.30;;;;;;4861044;29;20029;-72
2022/07/12 09:50:57;;;;;;;2.40;1.20;;;21.70;58.10;;;;;;4844199;29;20050;-72
2022/07/12 09:53:38;;;;;;;2.03;1.30;;;21.70;58.20;;;;;;4860977;29;20033;-72
2022/07/12 09:56:09;;;;;;;1.80;1.30;;;21.70;58.10;;;;;;4861045;29;20041;-72
2022/07/12 09:58:57;;;;;;;2.38;1.40;;;21.70;58.10;;;;;;4861048;29;20086;-72
2022/07/12 10:01:24;;;;;;;1.85;1.30;;;21.70;58.10;;;;;;4860561;29;20064;-72
2022/07/12 10:03:55;;;;;;;3.08;1.65;;;21.70;58.80;;;;;;4859914;29;20380;-72
2022/07/12 10:06:25;;;;;;;2.40;1.55;;;21.80;58.20;;;;;;4860704;29;20042;-72
2022/07/12 10:08:51;;;;;;;2.50;1.40;;;21.80;58.20;;;;;;4859685;29;20085;-73
2022/07/12 10:11:19;;;;;;;1.80;1.23;;;21.80;58.20;;;;;;4860356;29;20034;-72
2022/07/12 10:13:46;;;;;;;2.08;1.30;;;21.80;58.20;;;;;;4859498;29;20042;-72
2022/07/12 10:16:14;;;;;;;2.78;1.30;;;21.80;58.20;;;;;;4859448;29;20531;-72
2022/07/12 10:18:40;;;;;;;3.20;1.58;;;21.80;58.20;;;;;;4860558;29;20030;-72
2022/07/12 10:21:21;;;;;;;2.72;1.60;;;21.80;58.30;;;;;;4843888;29;20038;-73
2022/07/12 10:23:48;;;;;;;3.13;1.52;;;21.80;58.30;;;;;;4859546;29;20154;-72
2022/07/12 10:26:17;;;;;;;2.47;1.55;;;21.80;58.20;;;;;;4844121;29;20048;-72
2022/07/12 10:29:03;;;;;;;3.03;1.55;;;21.80;58.30;;;;;;4860360;29;20447;-72
2022/07/12 10:31:37;;;;;;;1.85;1.30;;;21.80;58.20;;;;;;4858924;29;20033;-72
2022/07/12 10:34:20;;;;;;;2.55;1.58;;;21.80;58.20;;;;;;4859176;29;20061;-72
2022/07/12 10:36:55;;;;;;;1.88;1.27;;;21.80;58.20;;;;;;4843713;29;20580;-73
2022/07/12 10:39:26;;;;;;;1.83;1.25;;;21.70;58.30;;;;;;4859233;29;20128;-72
2022/07/12 10:42:14;;;;;;;3.13;1.30;;;21.80;58.30;;;;;;4857852;29;20502;-72
2022/07/12 10:44:46;;;;;;;2.10;1.45;;;21.70;58.20;;;;;;4860344;29;20041;-72
2022/07/12 10:47:14;;;;;;;2.20;1.33;;;21.80;58.40;;;;;;4858985;29;20495;-72
2022/07/12 10:49:48;;;;;;;2.03;1.30;;;21.70;58.30;;;;;;4858555;29;20557;-72
2022/07/12 10:52:15;;;;;;;2.47;1.30;;;21.70;58.30;;;;;;4859180;29;20119;-72
2022/07/12 10:55:02;;;;;;;1.95;1.48;;;21.80;58.30;;;;;;4860053;29;20034;-72
2022/07/12 10:57:46;;;;;;;2.17;1.13;;;21.70;58.30;;;;;;4853253;29;20038;-72
2022/07/12 11:00:14;;;;;;;1.92;1.40;;;21.70;58.20;;;;;;4859644;29;20041;-72
2022/07/12 11:02:40;;;;;;;2.20;1.20;;;21.80;58.40;;;;;;4859950;29;20037;-72
2022/07/12 11:05:08;;;;;;;1.83;1.20;;;21.80;58.40;;;;;;4859916;29;20034;-72
2022/07/12 11:07:34;;;;;;;1.80;1.30;;;21.80;58.30;;;;;;4859910;29;20457;-72
2022/07/12 11:10:00;;;;;;;2.55;1.42;;;21.70;58.30;;;;;;4858225;29;20041;-72
2022/07/12 11:12:29;;;;;;;1.80;1.40;;;21.70;58.40;;;;;;4859810;29;20395;-72
2022/07/12 11:14:56;;;;;;;1.67;1.15;;;21.70;58.40;;;;;;4859891;29;20033;-72
2022/07/12 11:17:30;;;;;;;1.75;1.20;;;21.70;58.50;;;;;;4858638;29;20085;-73
2022/07/12 11:20:27;;;;;;;2.10;1.35;;;21.70;58.40;;;;;;4859406;29;20045;-72
2022/07/12 11:22:53;;;;;;;2.05;1.23;;;21.70;58.50;;;;;;4858964;29;20097;-72
2022/07/12 11:25:19;;;;;;;2.53;1.30;;;21.70;58.50;;;;;;4858511;29;20033;-72
2022/07/12 11:27:45;;;;;;;1.92;1.30;;;21.80;58.50;;;;;;4858483;29;20044;-72
2022/07/12 11:30:13;;;;;;;1.60;1.23;;;21.70;58.50;;;;;;4858494;29;20030;-72
2022/07/12 11:32:42;;;;;;;1.60;1.10;;;21.80;58.50;;;;;;4858457;29;20101;-72
2022/07/12 11:35:21;;;;;;;3.33;1.35;;;21.70;58.50;;;;;;4858541;29;20030;-72
2022/07/12 11:37:49;;;;;;;1.92;1.30;;;21.70;58.50;;;;;;4859562;29;20033;-72
2022/07/12 11:40:14;;;;;;;2.22;1.40;;;21.70;58.50;;;;;;4857980;29;20048;-72
2022/07/12 11:43:00;;;;;;;2.13;1.50;;;21.70;58.50;;;;;;4859543;29;20034;-72
2022/07/12 11:45:28;;;;;;;2.67;1.50;;;21.70;58.50;;;;;;4858178;29;20514;-72
2022/07/12 11:47:56;;;;;;;2.20;1.27;;;21.80;58.60;;;;;;4859401;29;20037;-72
2022/07/12 11:50:22;;;;;;;1.92;1.38;;;21.80;58.70;;;;;;4859059;29;20049;-72
2022/07/12 11:52:48;;;;;;;2.35;1.25;;;21.80;58.60;;;;;;4860511;29;20078;-72
2022/07/12 11:55:14;;;;;;;1.83;1.40;;;21.70;58.60;;;;;;4863341;29;20033;-72
2022/07/12 11:57:40;;;;;;;1.80;1.10;;;21.70;58.60;;;;;;4863175;29;20093;-72
2022/07/12 12:00:26;;;;;;;2.08;1.27;;;21.70;58.60;;;;;;4861604;29;20105;-72
2022/07/12 12:02:54;;;;;;;1.88;1.30;;;21.70;58.60;;;;;;4863068;29;20128;-72
2022/07/12 12:05:21;;;;;;;2.10;1.30;;;21.70;58.60;;;;;;4862893;29;20041;-72
2022/07/12 12:07:47;;;;;;;1.70;1.20;;;21.70;58.60;;;;;;4861736;29;20455;-72
2022/07/12 12:10:15;;;;;;;2.25;1.58;;;21.80;58.70;;;;;;4861457;29;20040;-72
2022/07/12 12:12:52;;;;;;;1.85;1.40;;;21.80;58.70;;;;;;4862761;29;20135;-72
2022/07/12 12:15:22;;;;;;;1.95;1.40;;;21.80;58.70;;;;;;4862836;29;20045;-72
2022/07/12 12:18:11;;;;;;;1.70;1.30;;;21.80;58.70;;;;;;4862855;29;20250;-72
2022/07/12 12:20:39;;;;;;;1.93;1.20;;;21.80;58.70;;;;;;4861406;29;20464;-72
2022/07/12 12:23:07;;;;;;;2.28;1.25;;;21.80;58.70;;;;;;4877215;29;20037;-72
2022/07/12 12:25:33;;;;;;;2.42;1.40;;;21.80;58.70;;;;;;4862591;29;20036;-72
2022/07/12 12:28:01;;;;;;;2.42;1.20;;;21.80;58.70;;;;;;4862541;29;20090;-72
2022/07/12 12:30:29;;;;;;;2.05;1.30;;;21.80;58.70;;;;;;4862222;29;20029;-72
2022/07/12 12:33:04;;;;;;;2.55;1.40;;;21.80;58.70;;;;;;4862435;29;20108;-72
2022/07/12 12:35:32;;;;;;;1.67;1.20;;;21.80;58.70;;;;;;4845846;29;20468;-72
2022/07/12 12:38:12;;;;;;;2.70;1.48;;;21.80;58.60;;;;;;4861263;29;20056;-72
2022/07/12 12:40:39;;;;;;;1.58;1.15;;;21.80;58.70;;;;;;4861958;29;20069;-72
2022/07/12 12:43:18;;;;;;;4.22;1.38;;;21.80;58.70;;;;;;4862341;29;20068;-72
2022/07/12 12:45:51;;;;;;;2.42;1.40;;;21.80;58.80;;;;;;4862237;29;20029;-72
2022/07/12 12:48:29;;;;;;;1.85;1.30;;;21.80;59.30;;;;;;4860859;29;20443;-72
2022/07/12 12:51:03;;;;;;;1.88;1.27;;;21.80;58.80;;;;;;4861878;29;20029;-72
2022/07/12 12:53:30;;;;;;;1.92;1.27;;;21.80;58.80;;;;;;4862129;29;20040;-72
2022/07/12 12:55:56;;;;;;;3.13;1.20;;;21.80;58.80;;;;;;4860869;29;20044;-72
2022/07/12 12:58:24;;;;;;;1.58;1.13;;;21.80;58.80;;;;;;4861032;29;20029;-72
2022/07/12 13:00:53;;;;;;;2.00;1.20;;;21.80;58.80;;;;;;4861495;29;20493;-72
2022/07/12 13:03:20;;;;;;;1.83;1.23;;;21.80;58.80;;;;;;4860990;29;20037;-72